createdAt,value
2022-11-05T00:00:18.106Z,96742.31
2022-11-05T00:03:03.466Z,96737.34
2022-11-05T00:05:49.869Z,96733.00
2022-11-05T00:08:35.338Z,96740.88
2022-11-05T00:11:02.241Z,96727.63
2022-11-05T00:13:47.804Z,96734.66
2022-11-05T00:16:33.117Z,96734.03
2022-11-05T00:19:10.139Z,96733.84
2022-11-05T00:21:58.605Z,96739.56
2022-11-05T00:24:44.196Z,96733.00
2022-11-05T00:27:11.514Z,96740.69
2022-11-05T00:29:38.376Z,96726.47
2022-11-05T00:32:05.362Z,96721.19
2022-11-05T00:34:32.277Z,96725.94
2022-11-05T00:36:59.375Z,96734.91
2022-11-05T00:39:26.394Z,96739.50
2022-11-05T00:42:11.709Z,96730.59
2022-11-05T00:44:57.098Z,96730.13
2022-11-05T00:47:42.316Z,96731.78
2022-11-05T00:50:10.825Z,96735.13
2022-11-05T00:52:57.250Z,96740.56
2022-11-05T00:55:35.353Z,96740.59
2022-11-05T00:58:03.678Z,96736.31
2022-11-05T01:00:32.203Z,96731.53
2022-11-05T01:03:05.544Z,96723.59
2022-11-05T01:05:34.202Z,96730.59
2022-11-05T01:08:01.193Z,96727.94
2022-11-05T01:10:28.497Z,96725.28
2022-11-05T01:12:55.741Z,96724.16
2022-11-05T01:15:22.997Z,96719.50
2022-11-05T01:17:51.509Z,96714.91
2022-11-05T01:20:18.390Z,96711.13
2022-11-05T01:22:45.304Z,96699.25
2022-11-05T01:25:12.224Z,96704.56
2022-11-05T01:27:39.498Z,96716.84
2022-11-05T01:30:08.457Z,96683.50
2022-11-05T01:32:36.840Z,96718.97
2022-11-05T01:35:09.313Z,96679.25
2022-11-05T01:37:36.432Z,96711.75
2022-11-05T01:40:04.763Z,96684.72
2022-11-05T01:42:32.754Z,96703.44
2022-11-05T01:45:16.427Z,96720.84
2022-11-05T01:47:49.631Z,96712.03
2022-11-05T01:50:28.278Z,96709.38
2022-11-05T01:53:06.409Z,96708.53
2022-11-05T01:55:37.928Z,96702.59
2022-11-05T01:58:09.663Z,96705.63
2022-11-05T02:00:36.768Z,96685.78
2022-11-05T02:03:04.276Z,96686.53
2022-11-05T02:05:32.641Z,96677.44
2022-11-05T02:07:59.990Z,96671.59
2022-11-05T02:10:27.935Z,96682.03
2022-11-05T02:12:54.853Z,96677.16
2022-11-05T02:15:59.332Z,96669.78
2022-11-05T02:18:35.450Z,96668.59
2022-11-05T02:21:11.488Z,96663.69
2022-11-05T02:24:00.643Z,96664.69
2022-11-05T02:27:05.098Z,96655.16
2022-11-05T02:30:12.245Z,96649.00
2022-11-05T02:32:41.794Z,96663.00
2022-11-05T02:35:29.770Z,96660.16
2022-11-05T02:38:09.568Z,96659.78
2022-11-05T02:40:49.602Z,96658.38
2022-11-05T02:43:29.447Z,96657.44
2022-11-05T02:46:17.702Z,96656.22
2022-11-05T02:49:17.866Z,96668.50
2022-11-05T02:51:53.350Z,96672.41
2022-11-05T02:54:35.405Z,96663.91
2022-11-05T02:57:04.812Z,96677.00
2022-11-05T02:59:31.725Z,96668.31
2022-11-05T03:02:01.737Z,96649.75
2022-11-05T03:04:30.169Z,96668.31
2022-11-05T03:07:23.099Z,96670.47
2022-11-05T03:09:55.967Z,96689.56
2022-11-05T03:12:57.611Z,96680.03
2022-11-05T03:15:44.531Z,96668.44
2022-11-05T03:18:32.568Z,96674.81
2022-11-05T03:21:14.776Z,96681.03
2022-11-05T03:24:02.556Z,96684.94
2022-11-05T03:26:33.645Z,96672.00
2022-11-05T03:29:09.579Z,96671.44
2022-11-05T03:31:39.465Z,96682.59
2022-11-05T03:34:09.093Z,96673.06
2022-11-05T03:36:41.823Z,96673.75
2022-11-05T03:39:15.448Z,96669.84
2022-11-05T03:41:46.184Z,96686.88
2022-11-05T03:44:18.815Z,96680.34
2022-11-05T03:46:49.457Z,96676.66
2022-11-05T03:49:24.259Z,96685.16
2022-11-05T03:52:16.767Z,96670.91
2022-11-05T03:54:44.238Z,96679.16
2022-11-05T03:57:17.965Z,96674.00
2022-11-05T03:59:47.258Z,96672.59
2022-11-05T04:02:16.710Z,96671.72
2022-11-05T04:04:43.892Z,96685.34
2022-11-05T04:07:30.809Z,96675.97
2022-11-05T04:10:16.128Z,96664.63
2022-11-05T04:13:01.515Z,96675.25
2022-11-05T04:15:51.433Z,96677.69
2022-11-05T04:18:18.304Z,96674.28
2022-11-05T04:21:03.649Z,96670.94
2022-11-05T04:23:49.105Z,96664.41
2022-11-05T04:26:16.037Z,96664.03
2022-11-05T04:29:06.776Z,96663.41
2022-11-05T04:31:34.729Z,96672.69
2022-11-05T04:34:01.679Z,96668.31
2022-11-05T04:36:28.908Z,96673.13
2022-11-05T04:38:56.081Z,96648.69
2022-11-05T04:41:23.296Z,96684.41
2022-11-05T04:43:50.144Z,96691.28
2022-11-05T04:46:17.057Z,96695.59
2022-11-05T04:48:44.013Z,96692.19
2022-11-05T04:51:10.904Z,96691.56
2022-11-05T04:53:37.748Z,96693.94
2022-11-05T04:56:25.214Z,96693.19
2022-11-05T04:58:52.470Z,96681.13
2022-11-05T05:01:22.363Z,96684.97
2022-11-05T05:03:51.169Z,96690.91
2022-11-05T05:06:18.848Z,96683.88
2022-11-05T05:08:50.395Z,96684.66
2022-11-05T05:11:20.063Z,96693.94
2022-11-05T05:13:47.680Z,96687.72
2022-11-05T05:16:23.081Z,96705.03
2022-11-05T05:18:50.371Z,96705.03
2022-11-05T05:21:37.309Z,96711.09
2022-11-05T05:24:05.952Z,96719.66
2022-11-05T05:26:32.799Z,96720.66
2022-11-05T05:28:59.633Z,96724.44
2022-11-05T05:31:26.510Z,96720.38
2022-11-05T05:33:54.728Z,96717.50
2022-11-05T05:36:22.493Z,96721.25
2022-11-05T05:38:49.822Z,96725.38
2022-11-05T05:41:17.382Z,96723.56
2022-11-05T05:43:44.320Z,96729.63
2022-11-05T05:46:14.404Z,96724.66
2022-11-05T05:48:42.016Z,96740.41
2022-11-05T05:51:11.155Z,96732.22
2022-11-05T05:53:38.651Z,96742.16
2022-11-05T05:56:06.482Z,96740.06
2022-11-05T05:58:38.976Z,96726.50
2022-11-05T06:01:10.980Z,96731.06
2022-11-05T06:03:41.180Z,96746.22
2022-11-05T06:16:35.992Z,96750.28
2022-11-05T06:19:03.147Z,96746.88
2022-11-05T06:21:29.988Z,96751.88
2022-11-05T06:23:56.829Z,96749.75
2022-11-05T06:26:23.616Z,96759.53
2022-11-05T06:28:50.570Z,96762.06
2022-11-05T06:31:17.576Z,96763.09
2022-11-05T06:33:44.592Z,96717.88
2022-11-05T06:36:16.116Z,96763.78
2022-11-05T06:38:43.066Z,96762.44
2022-11-05T06:41:10.657Z,96760.28
2022-11-05T06:43:38.750Z,96760.72
2022-11-05T06:46:06.030Z,96764.31
2022-11-05T06:48:33.081Z,96762.56
2022-11-05T06:51:00.024Z,96756.63
2022-11-05T06:53:27.819Z,96769.34
2022-11-05T06:55:54.899Z,96761.63
2022-11-05T06:58:21.774Z,96757.84
2022-11-05T07:00:48.969Z,96746.06
2022-11-05T07:03:16.089Z,96750.47
2022-11-05T07:05:49.003Z,96756.06
2022-11-05T07:08:16.100Z,96749.78
2022-11-05T07:10:43.067Z,96753.31
2022-11-05T07:13:10.310Z,96750.41
2022-11-05T07:15:37.782Z,96745.78
2022-11-05T07:18:07.497Z,96731.81
2022-11-05T07:20:34.991Z,96740.63
2022-11-05T07:23:06.663Z,96742.59
2022-11-05T07:25:34.587Z,96745.03
2022-11-05T07:28:02.483Z,96740.34
2022-11-05T07:30:30.449Z,96739.78
2022-11-05T07:32:57.605Z,96691.16
2022-11-05T07:35:24.727Z,96734.78
2022-11-05T07:37:56.515Z,96722.06
2022-11-05T07:40:25.502Z,96726.13
2022-11-05T07:43:00.181Z,96722.66
2022-11-05T07:45:28.683Z,96723.41
2022-11-05T07:48:00.861Z,96724.47
2022-11-05T07:50:30.496Z,96727.41
2022-11-05T07:53:11.962Z,96731.72
2022-11-05T07:55:42.094Z,96688.69
2022-11-05T07:58:09.828Z,96719.31
2022-11-05T08:00:36.860Z,96728.22
2022-11-05T08:03:10.781Z,96727.72
2022-11-05T08:05:40.636Z,96727.88
2022-11-05T08:08:08.821Z,96733.78
2022-11-05T08:10:36.935Z,96725.88
2022-11-05T08:13:04.507Z,96726.72
2022-11-05T08:15:31.469Z,96726.06
2022-11-05T08:17:59.662Z,96724.81
2022-11-05T08:20:26.925Z,96714.03
2022-11-05T08:22:54.743Z,96721.50
2022-11-05T08:25:21.897Z,96717.63
2022-11-05T08:27:55.564Z,96721.88
2022-11-05T08:30:22.898Z,96722.00
2022-11-05T08:32:49.956Z,96725.22
2022-11-05T08:35:17.228Z,96721.06
2022-11-05T08:37:44.105Z,96717.16
2022-11-05T08:40:11.295Z,96720.38
2022-11-05T08:42:38.993Z,96719.88
2022-11-05T08:45:06.330Z,96721.31
2022-11-05T08:47:33.257Z,96704.84
2022-11-05T08:50:00.182Z,96702.22
2022-11-05T08:52:27.057Z,96710.88
2022-11-05T08:54:53.926Z,96705.88
2022-11-05T08:57:20.811Z,96701.69
2022-11-05T08:59:47.688Z,96697.31
2022-11-05T09:02:14.668Z,96704.59
2022-11-05T09:04:41.758Z,96707.22
2022-11-05T09:07:08.977Z,96682.41
2022-11-05T09:09:35.895Z,96708.91
2022-11-05T09:12:12.214Z,96705.47
2022-11-05T09:14:39.719Z,96691.00
2022-11-05T09:17:18.336Z,96698.91
2022-11-05T09:19:45.441Z,96696.81
2022-11-05T09:22:13.040Z,96693.84
2022-11-05T09:24:41.113Z,96687.94
2022-11-05T09:27:13.251Z,96690.19
2022-11-05T09:29:41.152Z,96686.44
2022-11-05T09:32:09.219Z,96676.13
2022-11-05T09:34:36.540Z,96678.56
2022-11-05T09:44:07.920Z,96672.19
2022-11-05T09:46:43.641Z,96670.19
2022-11-05T09:49:26.068Z,96663.03
2022-11-05T09:51:55.219Z,96667.22
2022-11-05T09:54:26.427Z,96658.41
2022-11-05T09:56:55.199Z,96665.69
2022-11-05T09:59:27.725Z,96668.91
2022-11-05T10:02:03.247Z,96664.00
2022-11-05T10:04:34.335Z,96669.34
2022-11-05T10:07:05.875Z,96669.34
2022-11-05T10:09:38.123Z,96674.13
2022-11-05T10:15:27.626Z,96657.56
2022-11-05T10:18:00.105Z,96651.88
2022-11-05T10:20:33.664Z,96661.88
2022-11-05T10:23:21.489Z,96506.09
2022-11-05T10:25:53.748Z,96659.38
2022-11-05T10:28:24.357Z,96659.00
2022-11-05T10:30:57.625Z,96668.38
2022-11-05T10:33:52.025Z,96656.97
2022-11-05T10:36:22.304Z,96650.09
2022-11-05T10:38:50.312Z,96643.19
2022-11-05T10:41:34.799Z,96640.19
2022-11-05T10:44:27.086Z,96655.13
2022-11-05T10:47:29.226Z,96627.50
2022-11-05T10:50:00.680Z,96638.66
2022-11-05T10:52:34.096Z,96636.84
2022-11-05T10:55:05.195Z,96624.56
2022-11-05T10:57:38.436Z,96644.63
2022-11-05T11:00:17.105Z,96629.59
2022-11-05T11:02:47.241Z,96629.94
2022-11-05T11:05:27.285Z,96623.56
2022-11-05T11:08:17.459Z,96626.03
2022-11-05T11:10:54.566Z,96618.31
2022-11-05T11:13:27.741Z,96611.84
2022-11-05T11:15:55.692Z,96610.81
2022-11-05T11:18:27.332Z,96617.84
2022-11-05T11:21:04.335Z,96627.06
2022-11-05T11:23:37.866Z,96607.59
2022-11-05T11:26:05.679Z,96603.53
2022-11-05T11:28:37.563Z,96609.94
2022-11-05T11:31:14.221Z,96607.06
2022-11-05T11:33:44.736Z,96604.56
2022-11-05T11:36:12.962Z,96612.91
2022-11-05T11:38:40.674Z,96590.31
2022-11-05T11:41:30.903Z,96601.56
2022-11-05T11:44:12.969Z,96604.38
2022-11-05T11:46:40.727Z,96598.69
2022-11-05T11:49:44.908Z,96606.16
2022-11-05T11:52:18.733Z,96594.81
2022-11-05T11:54:45.667Z,96591.13
2022-11-05T11:57:25.019Z,96595.28
2022-11-05T12:00:09.637Z,96582.56
2022-11-05T12:02:43.010Z,96584.25
2022-11-05T12:05:30.789Z,96589.88
2022-11-05T12:08:42.869Z,96564.34
2022-11-05T12:11:30.963Z,96593.38
2022-11-05T12:14:13.085Z,96586.56
2022-11-05T12:17:08.963Z,96582.66
2022-11-05T12:19:49.436Z,96598.59
2022-11-05T12:22:26.722Z,96587.56
2022-11-05T12:25:14.880Z,96594.03
2022-11-05T12:27:44.373Z,96577.22
2022-11-05T12:30:17.583Z,96576.84
2022-11-05T12:33:09.327Z,96580.84
2022-11-05T12:35:57.725Z,96583.25
2022-11-05T12:38:52.389Z,96583.94
2022-11-05T12:41:28.711Z,96573.22
2022-11-05T12:44:10.195Z,96566.88
2022-11-05T12:46:45.157Z,96576.84
2022-11-05T12:49:33.868Z,96578.94
2022-11-05T12:52:18.926Z,96580.88
2022-11-05T12:55:16.785Z,96582.34
2022-11-05T12:57:47.158Z,96575.75
2022-11-05T13:00:20.524Z,96570.34
2022-11-05T13:03:18.352Z,96581.56
2022-11-05T13:06:01.500Z,96574.41
2022-11-05T13:08:45.008Z,96572.75
2022-11-05T13:11:21.704Z,96576.19
2022-11-05T13:14:11.606Z,96565.13
2022-11-05T13:17:11.649Z,96585.91
2022-11-05T13:19:50.789Z,96573.72
2022-11-05T13:22:42.780Z,96589.88
2022-11-05T13:39:45.035Z,96577.94
2022-11-05T13:42:38.834Z,96605.59
2022-11-05T13:45:43.326Z,96590.53
2022-11-05T13:48:28.390Z,96592.06
2022-11-05T13:51:16.951Z,96598.16
2022-11-05T13:54:21.490Z,96599.22
2022-11-05T13:56:53.941Z,96600.75
2022-11-05T13:59:38.653Z,96603.94
2022-11-05T14:02:25.430Z,96597.88
2022-11-05T14:05:00.695Z,96591.94
2022-11-05T14:07:35.270Z,96598.34
2022-11-05T14:10:21.534Z,96606.56
2022-11-05T14:12:51.761Z,96603.72
2022-11-05T14:15:23.359Z,96609.69
2022-11-05T14:18:00.794Z,96597.19
2022-11-05T14:20:30.362Z,96605.47
2022-11-05T14:23:28.385Z,96613.94
2022-11-05T14:25:58.080Z,96606.44
2022-11-05T14:28:46.793Z,96617.88
2022-11-05T14:31:19.777Z,96623.84
2022-11-05T14:34:12.370Z,96624.94
2022-11-05T14:36:41.379Z,96619.19
2022-11-05T14:39:17.069Z,96622.69
2022-11-05T14:41:54.581Z,96626.97
2022-11-05T14:44:22.520Z,96619.41
2022-11-05T14:46:54.078Z,96621.44
2022-11-05T14:49:28.085Z,96621.38
2022-11-05T14:52:00.635Z,96623.38
2022-11-05T14:54:30.683Z,96618.63
2022-11-05T14:57:00.536Z,96617.09
2022-11-05T14:59:28.316Z,96615.50
2022-11-05T15:02:13.605Z,96619.94
2022-11-05T15:04:42.797Z,96613.09
2022-11-05T15:07:09.580Z,96616.94
2022-11-05T15:09:58.271Z,96619.63
2022-11-05T15:12:30.256Z,96614.38
2022-11-05T15:15:22.065Z,96618.28
2022-11-05T15:18:00.723Z,96621.31
2022-11-05T15:20:39.623Z,96619.78
2022-11-05T15:23:12.839Z,96613.22
2022-11-05T15:26:01.472Z,96629.25
2022-11-05T15:28:38.570Z,96618.44
2022-11-05T15:31:06.802Z,96638.19
2022-11-05T15:33:33.736Z,96632.50
2022-11-05T15:36:18.837Z,96641.22
2022-11-05T15:39:08.183Z,96635.28
2022-11-05T15:41:34.531Z,96638.06
2022-11-05T15:44:02.790Z,96641.81
2022-11-05T15:46:30.181Z,96647.06
2022-11-05T15:49:06.529Z,96648.53
2022-11-05T15:51:33.943Z,96660.66
2022-11-05T15:56:56.985Z,96662.19
2022-11-05T15:59:25.714Z,96664.81
2022-11-05T16:02:02.039Z,96663.28
2022-11-05T16:04:31.934Z,96662.91
2022-11-05T16:07:09.330Z,96660.94
2022-11-05T16:09:40.374Z,96666.97
2022-11-05T16:12:15.278Z,96669.81
2022-11-05T16:14:42.585Z,96658.53
2022-11-05T16:17:24.190Z,96664.44
2022-11-05T16:19:52.168Z,96659.66
2022-11-05T16:22:19.822Z,96669.03
2022-11-05T16:24:47.428Z,96663.13
2022-11-05T16:27:20.194Z,96670.47
2022-11-05T16:29:48.557Z,96675.50
2022-11-05T16:32:19.669Z,96666.97
2022-11-05T16:34:53.607Z,96680.59
2022-11-05T16:37:23.833Z,96665.31
2022-11-05T16:39:51.745Z,96687.47
2022-11-05T16:42:24.842Z,96685.69
2022-11-05T16:44:55.271Z,96688.19
2022-11-05T16:47:22.943Z,96692.88
2022-11-05T16:49:50.591Z,96694.88
2022-11-05T16:52:17.883Z,96692.22
2022-11-05T16:54:44.880Z,96701.69
2022-11-05T16:57:23.370Z,96695.41
2022-11-05T16:59:50.385Z,96708.50
2022-11-05T17:02:17.524Z,96708.31
2022-11-05T17:04:44.564Z,96717.47
2022-11-05T17:07:11.431Z,96717.59
2022-11-05T17:09:38.295Z,96711.59
2022-11-05T17:12:05.418Z,96703.50
2022-11-05T17:14:32.322Z,96711.69
2022-11-05T17:17:02.673Z,96702.00
2022-11-05T17:19:29.564Z,96710.03
2022-11-05T17:21:56.469Z,96712.75
2022-11-05T17:24:23.342Z,96715.16
2022-11-05T17:26:50.197Z,96713.47
2022-11-05T17:29:17.113Z,96707.97
2022-11-05T17:31:44.085Z,96713.16
2022-11-05T17:34:11.052Z,96710.78
2022-11-05T17:36:37.906Z,96714.44
2022-11-05T17:39:04.864Z,96712.56
2022-11-05T17:41:31.951Z,96718.63
2022-11-05T17:43:59.036Z,96726.88
2022-11-05T17:46:26.356Z,96721.09
2022-11-05T17:48:53.244Z,96714.84
2022-11-05T17:51:20.971Z,96689.81
2022-11-05T17:53:49.388Z,96714.97
2022-11-05T17:56:28.873Z,96714.31
2022-11-05T17:59:01.235Z,96712.78
2022-11-05T18:01:34.680Z,96723.72
2022-11-05T18:04:08.303Z,96725.81
2022-11-05T18:06:40.271Z,96728.41
2022-11-05T18:09:08.880Z,96735.91
2022-11-05T18:11:36.229Z,96719.13
2022-11-05T18:14:03.916Z,96731.13
2022-11-05T18:16:31.337Z,96725.81
2022-11-05T18:18:58.285Z,96739.66
2022-11-05T18:21:25.165Z,96731.97
2022-11-05T18:23:52.095Z,96733.53
2022-11-05T18:26:19.134Z,96742.19
2022-11-05T18:28:46.193Z,96738.44
2022-11-05T18:31:18.067Z,96723.63
2022-11-05T18:33:45.607Z,96734.69
2022-11-05T18:36:18.724Z,96728.81
2022-11-05T18:38:47.714Z,96734.88
2022-11-05T18:41:15.445Z,96737.78
2022-11-05T18:43:42.313Z,96729.66
2022-11-05T18:46:23.863Z,96724.25
2022-11-05T18:48:58.056Z,96728.31
2022-11-05T18:51:25.972Z,96733.09
2022-11-05T18:53:54.499Z,96729.53
2022-11-05T18:56:22.151Z,96737.16
2022-11-05T18:58:49.810Z,96737.50
2022-11-05T19:01:23.666Z,96731.34
2022-11-05T19:03:58.051Z,96732.69
2022-11-05T19:06:25.635Z,96743.53
2022-11-05T19:08:52.977Z,96744.81
2022-11-05T19:11:22.444Z,96740.09
2022-11-05T19:13:49.355Z,96745.94
2022-11-05T19:16:27.617Z,96751.69
2022-11-05T19:18:57.598Z,96752.22
2022-11-05T19:21:26.022Z,96714.63
2022-11-05T19:23:53.316Z,96741.13
2022-11-05T19:26:28.184Z,96741.88
2022-11-05T19:28:58.198Z,96745.53
2022-11-05T19:31:25.925Z,96740.72
2022-11-05T19:33:53.479Z,96733.84
2022-11-05T19:36:21.668Z,96748.47
2022-11-05T19:38:53.582Z,96751.38
2022-11-05T19:41:21.565Z,96745.00
2022-11-05T19:43:48.391Z,96754.06
2022-11-05T19:46:17.897Z,96756.44
2022-11-05T19:48:45.616Z,96750.72
2022-11-05T19:51:24.124Z,96757.38
2022-11-05T19:53:52.883Z,96755.31
2022-11-05T19:56:24.935Z,96753.03
2022-11-05T19:58:53.257Z,96754.50
2022-11-05T20:01:22.004Z,96767.63
2022-11-05T20:03:49.871Z,96757.97
2022-11-05T20:06:32.184Z,96760.13
2022-11-05T20:11:50.069Z,96773.03
2022-11-05T20:14:17.340Z,96783.34
2022-11-05T20:16:45.888Z,96771.97
2022-11-05T20:19:17.837Z,96787.63
2022-11-05T20:21:45.467Z,96771.72
2022-11-05T20:24:17.474Z,96775.19
2022-11-05T20:26:50.353Z,96784.69
2022-11-05T20:29:17.292Z,96780.47
2022-11-05T20:31:44.128Z,96779.13
2022-11-05T20:34:10.996Z,96788.53
2022-11-05T20:36:38.825Z,96781.28
2022-11-05T20:39:05.909Z,96784.75
2022-11-05T20:41:33.267Z,96779.06
2022-11-05T20:44:00.218Z,96769.94
2022-11-05T20:46:27.462Z,96800.38
2022-11-05T20:48:54.720Z,96793.03
2022-11-05T20:51:24.358Z,96794.03
2022-11-05T20:53:59.255Z,96802.50
2022-11-05T20:56:29.417Z,96809.06
2022-11-05T20:58:58.464Z,96811.59
2022-11-05T21:01:27.671Z,96809.81
2022-11-05T21:03:54.982Z,96797.41
2022-11-05T21:06:22.688Z,96803.63
2022-11-05T21:08:51.338Z,96804.50
2022-11-05T21:11:19.590Z,96809.88
2022-11-05T21:13:47.176Z,96808.94
2022-11-05T21:16:18.447Z,96808.53
2022-11-05T21:18:46.520Z,96802.19
2022-11-05T21:21:16.316Z,96803.75
2022-11-05T21:23:43.327Z,96821.50
2022-11-05T21:26:13.261Z,96810.03
2022-11-05T21:28:41.033Z,96824.66
2022-11-05T21:31:19.569Z,96811.72
2022-11-05T21:33:50.915Z,96834.47
2022-11-05T21:36:20.920Z,96826.53
2022-11-05T21:38:47.907Z,96827.88
2022-11-05T21:43:42.421Z,96841.34
2022-11-05T21:46:12.074Z,96833.72
2022-11-05T21:48:39.333Z,96813.59
2022-11-05T21:51:24.860Z,96831.13
2022-11-05T21:54:10.242Z,96837.81
2022-11-05T21:56:56.150Z,96834.47
2022-11-05T21:59:43.037Z,96826.91
2022-11-05T22:02:12.336Z,96835.47
2022-11-05T22:04:41.768Z,96843.63
2022-11-05T22:07:11.089Z,96854.47
2022-11-05T22:09:38.188Z,96841.72
2022-11-05T22:12:05.972Z,96852.16
2022-11-05T22:14:32.983Z,96850.66
2022-11-05T22:17:00.166Z,96849.91
2022-11-05T22:19:27.263Z,96845.06
2022-11-05T22:21:54.152Z,96851.81
2022-11-05T22:24:21.389Z,96852.00
2022-11-05T22:26:49.223Z,96854.38
2022-11-05T22:29:16.948Z,96860.09
2022-11-05T22:31:44.446Z,96855.72
2022-11-05T22:34:12.127Z,96855.13
2022-11-05T22:36:39.073Z,96852.69
2022-11-05T22:39:06.186Z,96855.41
2022-11-05T22:41:33.768Z,96856.53
2022-11-05T22:44:00.981Z,96860.09
2022-11-05T22:46:27.864Z,96849.72
2022-11-05T22:48:56.242Z,96855.94
2022-11-05T22:51:25.959Z,96845.16
2022-11-05T22:53:54.754Z,96849.16
2022-11-05T22:56:24.386Z,96848.47
2022-11-05T22:58:51.661Z,96848.56
2022-11-05T23:01:19.503Z,96845.97
2022-11-05T23:03:48.167Z,96845.41
2022-11-05T23:06:39.082Z,96849.50
2022-11-05T23:09:30.631Z,96840.31
2022-11-05T23:11:57.498Z,96843.91
2022-11-05T23:14:24.767Z,96846.78
2022-11-05T23:17:10.159Z,96848.47
2022-11-05T23:19:56.217Z,96847.56
2022-11-05T23:22:45.168Z,96848.53
2022-11-05T23:25:18.881Z,96849.53
2022-11-05T23:27:48.561Z,96856.41
2022-11-05T23:30:21.323Z,96851.19
2022-11-05T23:32:48.562Z,96856.69
2022-11-05T23:35:16.143Z,96856.09
2022-11-05T23:38:02.022Z,96848.66
2022-11-05T23:40:51.555Z,96843.28
2022-11-05T23:43:37.100Z,96842.16
2022-11-05T23:46:22.420Z,96843.88
2022-11-05T23:48:50.695Z,96838.34
2022-11-05T23:51:17.926Z,96831.53
2022-11-05T23:53:44.916Z,96825.03
2022-11-05T23:56:14.634Z,96829.94
2022-11-05T23:58:42.696Z,96819.75
